Azamara Quest — V7DM6 — position and weather

sailwx.info

Track history (hours):
 
Tides and Currents Weather Stations Pressure Air Temp Water Temp Dewpoint Dewpoint Depression Visibility Wind Speed Wind Dir Waves Ship Positions

Azamara Quest

Last reported at 2018-Nov-11 02:33 UTC. Time now 2018-Nov-13 07:20 UTC.
Position N 38°02' E 023°31'.

Length 184 m; draft 6.7 m.

Type: Tanker. MMSI: 538005401.

Date/timePositionNaut miles runAvg speedWind from/ knotsBaromVisibWave heightAir tempDewpointWater temp
2018-Nov-11 02:33N 38°02' E 023°31'1 1.3
2018-Nov-11 02:03N 38°02' E 023°31'0 1.0
2018-Nov-11 01:32N 38°01' E 023°32'0 0.1
2018-Nov-11 01:02N 38°01' E 023°32'0 0.0
2018-Nov-11 00:32N 38°01' E 023°32'0 0.1
2018-Nov-11 00:02N 38°01' E 023°32'0 0.1
2018-Nov-10 23:32N 38°01' E 023°32'0 0.1
2018-Nov-10 23:02N 38°01' E 023°32'0 0.0
2018-Nov-10 22:32N 38°01' E 023°32'0 0.0
2018-Nov-10 22:02N 38°01' E 023°32'0 0.0
2018-Nov-10 21:32N 38°01' E 023°32'0 0.0
2018-Nov-10 21:02N 38°01' E 023°32'0 0.0
2018-Nov-10 20:32N 38°01' E 023°32'0 0.0
2018-Nov-10 20:02N 38°01' E 023°32'0 0.0
2018-Nov-10 19:32N 38°01' E 023°32'0 0.1
2018-Nov-10 19:02N 38°01' E 023°32'0 0.1
2018-Nov-10 18:32N 38°01' E 023°32'0 0.0
2018-Nov-10 17:59N 38°01' E 023°32'0 0.0
2018-Nov-10 17:32N 38°01' E 023°32'0 0.0
2018-Nov-10 17:02N 38°01' E 023°32'0 0.0
2018-Nov-10 16:32N 38°01' E 023°32'0 0.0
2018-Nov-10 16:02N 38°01' E 023°32'0 0.0
2018-Nov-10 15:32N 38°01' E 023°32'0 0.0
2018-Nov-10 15:02N 38°01' E 023°32'0 0.0
2018-Nov-10 14:32N 38°01' E 023°32'0 0.0
2018-Nov-10 14:02N 38°01' E 023°32'0 0.1
2018-Nov-10 13:32N 38°01' E 023°32'0 0.0
2018-Nov-10 13:02N 38°01' E 023°32'0 0.1
2018-Nov-10 12:32N 38°01' E 023°32'0 0.0
2018-Nov-10 12:02N 38°01' E 023°32'0 0.0
2018-Nov-10 11:32N 38°01' E 023°32'0 0.0
2018-Nov-10 11:02N 38°01' E 023°32'0 0.1
2018-Nov-10 10:32N 38°01' E 023°32'0 0.0
2018-Nov-10 10:02N 38°01' E 023°32'0 0.1
2018-Nov-10 09:32N 38°01' E 023°32'0 0.0
2018-Nov-10 09:02N 38°01' E 023°32'0 0.0
2018-Nov-10 08:32N 38°01' E 023°32'0 0.0
2018-Nov-10 08:02N 38°01' E 023°32'0 0.0
2018-Nov-10 07:32N 38°01' E 023°32'0 0.2
2018-Nov-10 07:02N 38°01' E 023°32'3 5.9
2018-Nov-10 06:32N 37°59' E 023°33'4 7.7
2018-Nov-10 06:02N 37°56' E 023°36'5 9.7
2018-Nov-10 05:32N 37°51' E 023°35'3 5.8
2018-Nov-10 05:01N 37°52' E 023°31'0 0.2
2018-Nov-10 04:31N 37°52' E 023°31'0 0.0
2018-Nov-10 04:01N 37°52' E 023°31'0 0.1
2018-Nov-10 03:31N 37°52' E 023°31'0 0.0
2018-Nov-10 03:01N 37°52' E 023°31'0 0.0
2018-Nov-10 02:31N 37°52' E 023°31'0 0.0
2018-Nov-10 02:01N 37°52' E 023°31'0 0.0
2018-Nov-10 01:31N 37°52' E 023°31'0 0.0
2018-Nov-10 01:01N 37°52' E 023°31'0 0.0
2018-Nov-10 00:31N 37°52' E 023°31'0 0.0
2018-Nov-10 00:01N 37°52' E 023°31'0 0.0
2018-Nov-09 23:31N 37°52' E 023°31'0 0.0
2018-Nov-09 23:01N 37°52' E 023°31'0 0.0
2018-Nov-09 22:31N 37°52' E 023°31'0 0.0
2018-Nov-09 22:01N 37°52' E 023°31'0 0.0
2018-Nov-09 21:31N 37°52' E 023°31'0 0.3
2018-Nov-09 21:03N 37°52' E 023°32'2 3.8
2018-Nov-09 20:32N 37°52' E 023°34'510.2
2018-Nov-09 20:02N 37°50' E 023°40'612.7
2018-Nov-09 19:32N 37°44' E 023°44'612.9
2018-Nov-09 19:02N 37°39' E 023°49'611.4
2018-Nov-09 18:32N 37°34' E 023°49'2711.6
2018-Nov-09 16:10N 37°06' E 023°48'383 7.9
2018-Nov-07 15:56N 37°18' E 015°48'2 1.5
2018-Nov-07 14:15N 37°18' E 015°45'0 0.7
2018-Nov-07 14:01N 37°18' E 015°44'0 0.6
2018-Nov-07 13:20N 37°17' E 015°44'0 0.6
2018-Nov-07 12:45N 37°17' E 015°44'0 0.6
2018-Nov-07 12:32N 37°17' E 015°44'0 0.5
2018-Nov-07 11:54N 37°17' E 015°44'0 0.5
2018-Nov-07 11:08N 37°16' E 015°44'0 0.3
2018-Nov-07 10:21N 37°16' E 015°44'0 0.4
2018-Nov-07 09:51N 37°16' E 015°44'0 0.4
2018-Nov-07 09:32N 37°16' E 015°43'0 0.4
2018-Nov-07 09:01N 37°16' E 015°43'0 0.2
2018-Nov-07 08:27N 37°16' E 015°43'0 0.1
2018-Nov-07 07:49N 37°16' E 015°43'0 0.2
2018-Nov-07 07:21N 37°16' E 015°43'0 0.4
2018-Nov-07 06:50N 37°16' E 015°43'0 0.4
2018-Nov-07 06:32N 37°16' E 015°43'0 0.6
2018-Nov-07 05:59N 37°16' E 015°43'1 0.4
2018-Nov-07 04:08N 37°16' E 015°42'  
2018-Nov-03 17:37N 36°34' E 014°15'111.2
2018-Nov-03 17:30N 36°34' E 014°13'711.2
2018-Nov-03 16:53N 36°37' E 014°05'  
Track history (hours):
 
Tides and Currents Weather Stations Pressure Air Temp Water Temp Dewpoint Dewpoint Depression Visibility Wind Speed Wind Dir Waves Ship Positions

Azamara Quest

Last reported at 2018-Nov-11 02:33 UTC. Time now 2018-Nov-13 07:20 UTC.
Position N 38°02' E 023°31'.

Length 184 m; draft 6.7 m.

Type: Tanker. MMSI: 538005401.

Date/timePositionNaut miles runAvg speedWind from/ knotsBaromVisibWave heightAir tempDewpointWater temp
2018-Nov-11 02:33N 38°02' E 023°31'1 1.3
2018-Nov-11 02:03N 38°02' E 023°31'0 1.0
2018-Nov-11 01:32N 38°01' E 023°32'0 0.1
2018-Nov-11 01:02N 38°01' E 023°32'0 0.0
2018-Nov-11 00:32N 38°01' E 023°32'0 0.1
2018-Nov-11 00:02N 38°01' E 023°32'0 0.1
2018-Nov-10 23:32N 38°01' E 023°32'0 0.1
2018-Nov-10 23:02N 38°01' E 023°32'0 0.0
2018-Nov-10 22:32N 38°01' E 023°32'0 0.0
2018-Nov-10 22:02N 38°01' E 023°32'0 0.0
2018-Nov-10 21:32N 38°01' E 023°32'0 0.0
2018-Nov-10 21:02N 38°01' E 023°32'0 0.0
2018-Nov-10 20:32N 38°01' E 023°32'0 0.0
2018-Nov-10 20:02N 38°01' E 023°32'0 0.0
2018-Nov-10 19:32N 38°01' E 023°32'0 0.1
2018-Nov-10 19:02N 38°01' E 023°32'0 0.1
2018-Nov-10 18:32N 38°01' E 023°32'0 0.0
2018-Nov-10 17:59N 38°01' E 023°32'0 0.0
2018-Nov-10 17:32N 38°01' E 023°32'0 0.0
2018-Nov-10 17:02N 38°01' E 023°32'0 0.0
2018-Nov-10 16:32N 38°01' E 023°32'0 0.0
2018-Nov-10 16:02N 38°01' E 023°32'0 0.0
2018-Nov-10 15:32N 38°01' E 023°32'0 0.0
2018-Nov-10 15:02N 38°01' E 023°32'0 0.0
2018-Nov-10 14:32N 38°01' E 023°32'0 0.0
2018-Nov-10 14:02N 38°01' E 023°32'0 0.1
2018-Nov-10 13:32N 38°01' E 023°32'0 0.0
2018-Nov-10 13:02N 38°01' E 023°32'0 0.1
2018-Nov-10 12:32N 38°01' E 023°32'0 0.0
2018-Nov-10 12:02N 38°01' E 023°32'0 0.0
2018-Nov-10 11:32N 38°01' E 023°32'0 0.0
2018-Nov-10 11:02N 38°01' E 023°32'0 0.1
2018-Nov-10 10:32N 38°01' E 023°32'0 0.0
2018-Nov-10 10:02N 38°01' E 023°32'0 0.1
2018-Nov-10 09:32N 38°01' E 023°32'0 0.0
2018-Nov-10 09:02N 38°01' E 023°32'0 0.0
2018-Nov-10 08:32N 38°01' E 023°32'0 0.0
2018-Nov-10 08:02N 38°01' E 023°32'0 0.0
2018-Nov-10 07:32N 38°01' E 023°32'0 0.2
2018-Nov-10 07:02N 38°01' E 023°32'3 5.9
2018-Nov-10 06:32N 37°59' E 023°33'4 7.7
2018-Nov-10 06:02N 37°56' E 023°36'5 9.7
2018-Nov-10 05:32N 37°51' E 023°35'3 5.8
2018-Nov-10 05:01N 37°52' E 023°31'0 0.2
2018-Nov-10 04:31N 37°52' E 023°31'0 0.0
2018-Nov-10 04:01N 37°52' E 023°31'0 0.1
2018-Nov-10 03:31N 37°52' E 023°31'0 0.0
2018-Nov-10 03:01N 37°52' E 023°31'0 0.0
2018-Nov-10 02:31N 37°52' E 023°31'0 0.0
2018-Nov-10 02:01N 37°52' E 023°31'0 0.0
2018-Nov-10 01:31N 37°52' E 023°31'0 0.0
2018-Nov-10 01:01N 37°52' E 023°31'0 0.0
2018-Nov-10 00:31N 37°52' E 023°31'0 0.0
2018-Nov-10 00:01N 37°52' E 023°31'0 0.0
2018-Nov-09 23:31N 37°52' E 023°31'0 0.0
2018-Nov-09 23:01N 37°52' E 023°31'0 0.0
2018-Nov-09 22:31N 37°52' E 023°31'0 0.0
2018-Nov-09 22:01N 37°52' E 023°31'0 0.0
2018-Nov-09 21:31N 37°52' E 023°31'0 0.3
2018-Nov-09 21:03N 37°52' E 023°32'2 3.8
2018-Nov-09 20:32N 37°52' E 023°34'510.2
2018-Nov-09 20:02N 37°50' E 023°40'612.7
2018-Nov-09 19:32N 37°44' E 023°44'612.9
2018-Nov-09 19:02N 37°39' E 023°49'611.4
2018-Nov-09 18:32N 37°34' E 023°49'2711.6
2018-Nov-09 16:10N 37°06' E 023°48'383 7.9
2018-Nov-07 15:56N 37°18' E 015°48'2 1.5
2018-Nov-07 14:15N 37°18' E 015°45'0 0.7
2018-Nov-07 14:01N 37°18' E 015°44'0 0.6
2018-Nov-07 13:20N 37°17' E 015°44'0 0.6
2018-Nov-07 12:45N 37°17' E 015°44'0 0.6
2018-Nov-07 12:32N 37°17' E 015°44'0 0.5
2018-Nov-07 11:54N 37°17' E 015°44'0 0.5
2018-Nov-07 11:08N 37°16' E 015°44'0 0.3
2018-Nov-07 10:21N 37°16' E 015°44'0 0.4
2018-Nov-07 09:51N 37°16' E 015°44'0 0.4
2018-Nov-07 09:32N 37°16' E 015°43'0 0.4
2018-Nov-07 09:01N 37°16' E 015°43'0 0.2
2018-Nov-07 08:27N 37°16' E 015°43'0 0.1
2018-Nov-07 07:49N 37°16' E 015°43'0 0.2
2018-Nov-07 07:21N 37°16' E 015°43'0 0.4
2018-Nov-07 06:50N 37°16' E 015°43'0 0.4
2018-Nov-07 06:32N 37°16' E 015°43'0 0.6
2018-Nov-07 05:59N 37°16' E 015°43'1 0.4
2018-Nov-07 04:08N 37°16' E 015°42'  
2018-Nov-03 17:37N 36°34' E 014°15'111.2
2018-Nov-03 17:30N 36°34' E 014°13'711.2
2018-Nov-03 16:53N 36°37' E 014°05'  

Dump ship's entire track history